sensor_id;sensor_type;location;lat;lon;timestamp;P1;durP1;ratioP1;P2;durP2;ratioP2
4704;SDS011;2366;51.332;6.610;2023-10-08T00:00:46;8.23;;;4.38;;
4704;SDS011;2366;51.332;6.610;2023-10-08T00:03:14;9.48;;;4.93;;
4704;SDS011;2366;51.332;6.610;2023-10-08T00:05:42;9.05;;;4.63;;
4704;SDS011;2366;51.332;6.610;2023-10-08T00:08:08;13.10;;;5.07;;
4704;SDS011;2366;51.332;6.610;2023-10-08T00:10:38;9.25;;;4.65;;
4704;SDS011;2366;51.332;6.610;2023-10-08T00:13:06;8.45;;;5.97;;
4704;SDS011;2366;51.332;6.610;2023-10-08T00:15:37;6.15;;;4.18;;
4704;SDS011;2366;51.332;6.610;2023-10-08T00:18:07;8.93;;;4.88;;
4704;SDS011;2366;51.332;6.610;2023-10-08T00:20:36;12.40;;;5.38;;
4704;SDS011;2366;51.332;6.610;2023-10-08T00:23:40;6.35;;;5.15;;
4704;SDS011;2366;51.332;6.610;2023-10-08T00:26:17;7.05;;;4.80;;
4704;SDS011;2366;51.332;6.610;2023-10-08T00:28:58;6.97;;;4.50;;
4704;SDS011;2366;51.332;6.610;2023-10-08T00:31:31;7.03;;;4.55;;
4704;SDS011;2366;51.332;6.610;2023-10-08T00:34:06;11.65;;;5.07;;
4704;SDS011;2366;51.332;6.610;2023-10-08T00:36:36;9.20;;;4.22;;
4704;SDS011;2366;51.332;6.610;2023-10-08T00:39:03;9.45;;;5.20;;
4704;SDS011;2366;51.332;6.610;2023-10-08T00:41:33;6.93;;;4.32;;
4704;SDS011;2366;51.332;6.610;2023-10-08T00:43:59;9.23;;;5.17;;
4704;SDS011;2366;51.332;6.610;2023-10-08T00:46:25;8.45;;;4.43;;
4704;SDS011;2366;51.332;6.610;2023-10-08T00:48:56;6.80;;;4.70;;
4704;SDS011;2366;51.332;6.610;2023-10-08T00:51:23;6.93;;;5.30;;
4704;SDS011;2366;51.332;6.610;2023-10-08T00:54:10;11.57;;;4.55;;
4704;SDS011;2366;51.332;6.610;2023-10-08T00:56:42;14.10;;;4.95;;
4704;SDS011;2366;51.332;6.610;2023-10-08T00:59:14;10.88;;;4.90;;
4704;SDS011;2366;51.332;6.610;2023-10-08T01:01:41;12.98;;;5.47;;
4704;SDS011;2366;51.332;6.610;2023-10-08T01:04:24;7.40;;;4.28;;
4704;SDS011;2366;51.332;6.610;2023-10-08T01:06:58;17.52;;;5.72;;
4704;SDS011;2366;51.332;6.610;2023-10-08T01:09:25;7.90;;;4.97;;
4704;SDS011;2366;51.332;6.610;2023-10-08T01:12:19;7.80;;;4.90;;
4704;SDS011;2366;51.332;6.610;2023-10-08T01:14:49;12.50;;;4.65;;
4704;SDS011;2366;51.332;6.610;2023-10-08T01:17:18;9.13;;;4.85;;
4704;SDS011;2366;51.332;6.610;2023-10-08T01:19:49;13.45;;;5.30;;
4704;SDS011;2366;51.332;6.610;2023-10-08T01:22:33;14.15;;;6.70;;
4704;SDS011;2366;51.332;6.610;2023-10-08T01:24:58;9.03;;;5.80;;
4704;SDS011;2366;51.332;6.610;2023-10-08T01:27:29;11.02;;;5.43;;
4704;SDS011;2366;51.332;6.610;2023-10-08T01:29:59;11.07;;;5.38;;
4704;SDS011;2366;51.332;6.610;2023-10-08T01:32:43;7.13;;;5.20;;
4704;SDS011;2366;51.332;6.610;2023-10-08T01:35:09;15.90;;;5.85;;
4704;SDS011;2366;51.332;6.610;2023-10-08T01:37:51;15.80;;;4.90;;
4704;SDS011;2366;51.332;6.610;2023-10-08T01:40:17;11.05;;;6.45;;
4704;SDS011;2366;51.332;6.610;2023-10-08T01:42:44;7.40;;;5.35;;
4704;SDS011;2366;51.332;6.610;2023-10-08T01:45:10;7.90;;;5.45;;
4704;SDS011;2366;51.332;6.610;2023-10-08T01:47:38;8.68;;;4.80;;
4704;SDS011;2366;51.332;6.610;2023-10-08T01:50:04;10.47;;;5.70;;
4704;SDS011;2366;51.332;6.610;2023-10-08T01:52:36;7.60;;;5.30;;
4704;SDS011;2366;51.332;6.610;2023-10-08T01:55:01;18.43;;;5.30;;
4704;SDS011;2366;51.332;6.610;2023-10-08T01:57:28;9.40;;;5.40;;
4704;SDS011;2366;51.332;6.610;2023-10-08T01:59:53;12.13;;;4.60;;
4704;SDS011;2366;51.332;6.610;2023-10-08T02:02:19;7.88;;;5.38;;
4704;SDS011;2366;51.332;6.610;2023-10-08T02:04:44;8.00;;;4.77;;
4704;SDS011;2366;51.332;6.610;2023-10-08T02:07:10;6.77;;;4.90;;
4704;SDS011;2366;51.332;6.610;2023-10-08T02:09:41;9.88;;;5.00;;
4704;SDS011;2366;51.332;6.610;2023-10-08T02:12:06;9.00;;;5.50;;
4704;SDS011;2366;51.332;6.610;2023-10-08T02:14:33;7.70;;;4.60;;
4704;SDS011;2366;51.332;6.610;2023-10-08T02:17:00;5.60;;;4.22;;
4704;SDS011;2366;51.332;6.610;2023-10-08T02:19:31;10.63;;;4.95;;
4704;SDS011;2366;51.332;6.610;2023-10-08T02:21:57;7.88;;;5.30;;
4704;SDS011;2366;51.332;6.610;2023-10-08T02:24:23;8.80;;;5.40;;
4704;SDS011;2366;51.332;6.610;2023-10-08T02:26:50;11.07;;;5.65;;
4704;SDS011;2366;51.332;6.610;2023-10-08T02:29:17;5.82;;;5.10;;
4704;SDS011;2366;51.332;6.610;2023-10-08T02:31:42;12.50;;;5.40;;
4704;SDS011;2366;51.332;6.610;2023-10-08T02:34:08;10.25;;;5.75;;
4704;SDS011;2366;51.332;6.610;2023-10-08T02:36:35;9.50;;;5.00;;
4704;SDS011;2366;51.332;6.610;2023-10-08T02:39:05;10.82;;;5.47;;
4704;SDS011;2366;51.332;6.610;2023-10-08T02:41:38;7.35;;;4.65;;
4704;SDS011;2366;51.332;6.610;2023-10-08T02:44:06;12.00;;;4.70;;
4704;SDS011;2366;51.332;6.610;2023-10-08T02:46:37;13.73;;;6.22;;
4704;SDS011;2366;51.332;6.610;2023-10-08T02:49:06;7.13;;;4.70;;
4704;SDS011;2366;51.332;6.610;2023-10-08T02:51:35;10.95;;;5.55;;
4704;SDS011;2366;51.332;6.610;2023-10-08T02:54:01;10.43;;;5.23;;
4704;SDS011;2366;51.332;6.610;2023-10-08T02:56:30;9.48;;;4.45;;
4704;SDS011;2366;51.332;6.610;2023-10-08T02:58:57;8.00;;;5.32;;
4704;SDS011;2366;51.332;6.610;2023-10-08T03:01:23;6.00;;;4.33;;
4704;SDS011;2366;51.332;6.610;2023-10-08T03:03:48;13.57;;;7.23;;
4704;SDS011;2366;51.332;6.610;2023-10-08T03:06:14;8.10;;;4.50;;
4704;SDS011;2366;51.332;6.610;2023-10-08T03:08:40;7.93;;;5.17;;
4704;SDS011;2366;51.332;6.610;2023-10-08T03:11:10;10.90;;;5.55;;
4704;SDS011;2366;51.332;6.610;2023-10-08T03:13:45;9.55;;;5.43;;
4704;SDS011;2366;51.332;6.610;2023-10-08T03:16:18;7.80;;;4.70;;
4704;SDS011;2366;51.332;6.610;2023-10-08T03:18:46;12.27;;;5.85;;
4704;SDS011;2366;51.332;6.610;2023-10-08T03:21:15;15.70;;;5.88;;
4704;SDS011;2366;51.332;6.610;2023-10-08T03:23:58;7.22;;;5.45;;
4704;SDS011;2366;51.332;6.610;2023-10-08T03:26:23;13.93;;;6.30;;
4704;SDS011;2366;51.332;6.610;2023-10-08T03:29:03;6.40;;;4.15;;
4704;SDS011;2366;51.332;6.610;2023-10-08T03:31:43;6.88;;;4.97;;
4704;SDS011;2366;51.332;6.610;2023-10-08T03:34:12;7.68;;;5.03;;
4704;SDS011;2366;51.332;6.610;2023-10-08T03:36:38;13.77;;;5.28;;
4704;SDS011;2366;51.332;6.610;2023-10-08T03:39:09;13.90;;;5.57;;
4704;SDS011;2366;51.332;6.610;2023-10-08T03:41:44;9.32;;;5.53;;
4704;SDS011;2366;51.332;6.610;2023-10-08T03:44:29;10.88;;;4.90;;
4704;SDS011;2366;51.332;6.610;2023-10-08T03:46:54;11.40;;;5.50;;
4704;SDS011;2366;51.332;6.610;2023-10-08T03:49:22;15.02;;;5.93;;
4704;SDS011;2366;51.332;6.610;2023-10-08T03:51:47;11.00;;;5.67;;
4704;SDS011;2366;51.332;6.610;2023-10-08T03:54:16;15.07;;;5.57;;
4704;SDS011;2366;51.332;6.610;2023-10-08T03:56:54;13.65;;;6.75;;
4704;SDS011;2366;51.332;6.610;2023-10-08T03:59:20;10.70;;;5.80;;
4704;SDS011;2366;51.332;6.610;2023-10-08T04:01:56;9.32;;;5.03;;
4704;SDS011;2366;51.332;6.610;2023-10-08T04:04:26;10.38;;;5.93;;
4704;SDS011;2366;51.332;6.610;2023-10-08T04:07:11;12.15;;;5.80;;
4704;SDS011;2366;51.332;6.610;2023-10-08T04:09:51;9.18;;;5.15;;
4704;SDS011;2366;51.332;6.610;2023-10-08T04:12:30;8.55;;;4.63;;
4704;SDS011;2366;51.332;6.610;2023-10-08T04:14:59;13.70;;;5.63;;
4704;SDS011;2366;51.332;6.610;2023-10-08T04:17:32;7.03;;;4.95;;
4704;SDS011;2366;51.332;6.610;2023-10-08T04:20:09;11.13;;;5.13;;
4704;SDS011;2366;51.332;6.610;2023-10-08T04:22:55;13.60;;;5.53;;
4704;SDS011;2366;51.332;6.610;2023-10-08T04:25:21;10.23;;;5.07;;
4704;SDS011;2366;51.332;6.610;2023-10-08T04:27:46;14.50;;;5.73;;
4704;SDS011;2366;51.332;6.610;2023-10-08T04:30:15;9.90;;;5.75;;
4704;SDS011;2366;51.332;6.610;2023-10-08T04:32:41;8.50;;;4.97;;
4704;SDS011;2366;51.332;6.610;2023-10-08T04:35:07;8.23;;;5.63;;
4704;SDS011;2366;51.332;6.610;2023-10-08T04:37:39;13.25;;;5.85;;
4704;SDS011;2366;51.332;6.610;2023-10-08T04:40:06;11.98;;;6.20;;
4704;SDS011;2366;51.332;6.610;2023-10-08T04:42:40;12.35;;;6.00;;
4704;SDS011;2366;51.332;6.610;2023-10-08T04:45:09;9.00;;;5.57;;
4704;SDS011;2366;51.332;6.610;2023-10-08T04:47:38;12.18;;;6.70;;
4704;SDS011;2366;51.332;6.610;2023-10-08T04:50:07;7.97;;;5.20;;
4704;SDS011;2366;51.332;6.610;2023-10-08T04:52:40;15.50;;;5.47;;
4704;SDS011;2366;51.332;6.610;2023-10-08T04:55:11;13.00;;;5.25;;
4704;SDS011;2366;51.332;6.610;2023-10-08T04:57:45;11.38;;;5.78;;
4704;SDS011;2366;51.332;6.610;2023-10-08T05:00:11;10.73;;;5.13;;
4704;SDS011;2366;51.332;6.610;2023-10-08T05:02:40;10.30;;;5.50;;
4704;SDS011;2366;51.332;6.610;2023-10-08T05:05:15;9.02;;;5.40;;
4704;SDS011;2366;51.332;6.610;2023-10-08T05:07:40;10.43;;;6.00;;
4704;SDS011;2366;51.332;6.610;2023-10-08T05:10:12;22.92;;;5.60;;
4704;SDS011;2366;51.332;6.610;2023-10-08T05:12:44;11.60;;;5.45;;
4704;SDS011;2366;51.332;6.610;2023-10-08T05:15:26;10.77;;;5.40;;
4704;SDS011;2366;51.332;6.610;2023-10-08T05:18:14;8.43;;;4.85;;
4704;SDS011;2366;51.332;6.610;2023-10-08T05:20:43;10.32;;;5.20;;
4704;SDS011;2366;51.332;6.610;2023-10-08T05:23:14;16.38;;;5.72;;
4704;SDS011;2366;51.332;6.610;2023-10-08T05:25:50;12.18;;;5.90;;
4704;SDS011;2366;51.332;6.610;2023-10-08T05:28:33;10.60;;;5.65;;
4704;SDS011;2366;51.332;6.610;2023-10-08T05:31:07;7.15;;;4.70;;
4704;SDS011;2366;51.332;6.610;2023-10-08T05:33:42;7.50;;;5.18;;
4704;SDS011;2366;51.332;6.610;2023-10-08T05:36:26;8.27;;;4.97;;
4704;SDS011;2366;51.332;6.610;2023-10-08T05:39:15;6.03;;;4.32;;
4704;SDS011;2366;51.332;6.610;2023-10-08T05:41:54;8.25;;;5.07;;
4704;SDS011;2366;51.332;6.610;2023-10-08T05:44:38;11.15;;;5.80;;
4704;SDS011;2366;51.332;6.610;2023-10-08T05:47:12;13.77;;;5.57;;
4704;SDS011;2366;51.332;6.610;2023-10-08T05:49:58;7.82;;;5.30;;
4704;SDS011;2366;51.332;6.610;2023-10-08T05:52:51;8.55;;;4.50;;
4704;SDS011;2366;51.332;6.610;2023-10-08T05:55:22;9.82;;;7.18;;
4704;SDS011;2366;51.332;6.610;2023-10-08T05:58:04;5.43;;;4.90;;
4704;SDS011;2366;51.332;6.610;2023-10-08T06:00:43;10.38;;;5.75;;
4704;SDS011;2366;51.332;6.610;2023-10-08T06:03:16;8.77;;;4.80;;
4704;SDS011;2366;51.332;6.610;2023-10-08T06:06:00;8.75;;;5.15;;
4704;SDS011;2366;51.332;6.610;2023-10-08T06:08:41;9.52;;;5.40;;
4704;SDS011;2366;51.332;6.610;2023-10-08T06:11:26;12.90;;;7.20;;
4704;SDS011;2366;51.332;6.610;2023-10-08T06:14:12;13.40;;;6.80;;
4704;SDS011;2366;51.332;6.610;2023-10-08T06:17:01;11.30;;;5.45;;
4704;SDS011;2366;51.332;6.610;2023-10-08T06:19:47;11.60;;;5.97;;
4704;SDS011;2366;51.332;6.610;2023-10-08T06:22:14;9.52;;;5.40;;
4704;SDS011;2366;51.332;6.610;2023-10-08T06:24:40;13.77;;;5.97;;
4704;SDS011;2366;51.332;6.610;2023-10-08T06:27:05;11.13;;;5.30;;
4704;SDS011;2366;51.332;6.610;2023-10-08T06:29:32;12.20;;;5.72;;
4704;SDS011;2366;51.332;6.610;2023-10-08T06:31:58;13.67;;;6.07;;
4704;SDS011;2366;51.332;6.610;2023-10-08T06:34:27;9.27;;;6.13;;
4704;SDS011;2366;51.332;6.610;2023-10-08T06:36:55;11.95;;;5.78;;
4704;SDS011;2366;51.332;6.610;2023-10-08T06:39:25;9.20;;;5.30;;
4704;SDS011;2366;51.332;6.610;2023-10-08T06:42:12;11.43;;;5.60;;
4704;SDS011;2366;51.332;6.610;2023-10-08T06:44:39;9.10;;;5.15;;
4704;SDS011;2366;51.332;6.610;2023-10-08T06:47:07;10.77;;;5.93;;
4704;SDS011;2366;51.332;6.610;2023-10-08T06:49:34;21.13;;;16.77;;
4704;SDS011;2366;51.332;6.610;2023-10-08T06:52:01;10.93;;;8.43;;
4704;SDS011;2366;51.332;6.610;2023-10-08T06:54:27;12.77;;;6.70;;
4704;SDS011;2366;51.332;6.610;2023-10-08T06:56:55;7.63;;;4.50;;
4704;SDS011;2366;51.332;6.610;2023-10-08T06:59:21;15.43;;;6.80;;
4704;SDS011;2366;51.332;6.610;2023-10-08T07:01:50;9.88;;;5.30;;
4704;SDS011;2366;51.332;6.610;2023-10-08T07:04:17;11.50;;;6.07;;
4704;SDS011;2366;51.332;6.610;2023-10-08T07:06:44;11.43;;;5.50;;
4704;SDS011;2366;51.332;6.610;2023-10-08T07:09:11;12.18;;;6.25;;
4704;SDS011;2366;51.332;6.610;2023-10-08T07:11:53;8.93;;;5.60;;
4704;SDS011;2366;51.332;6.610;2023-10-08T07:14:22;12.20;;;6.50;;
4704;SDS011;2366;51.332;6.610;2023-10-08T07:16:51;11.80;;;5.88;;
4704;SDS011;2366;51.332;6.610;2023-10-08T07:19:23;13.48;;;7.30;;
4704;SDS011;2366;51.332;6.610;2023-10-08T07:22:02;14.77;;;6.43;;
4704;SDS011;2366;51.332;6.610;2023-10-08T07:24:28;12.75;;;6.85;;
4704;SDS011;2366;51.332;6.610;2023-10-08T07:26:56;10.48;;;6.20;;
4704;SDS011;2366;51.332;6.610;2023-10-08T07:29:21;12.10;;;6.03;;
4704;SDS011;2366;51.332;6.610;2023-10-08T07:31:47;12.30;;;6.80;;
4704;SDS011;2366;51.332;6.610;2023-10-08T07:34:14;13.85;;;6.32;;
4704;SDS011;2366;51.332;6.610;2023-10-08T07:36:44;10.18;;;5.93;;
4704;SDS011;2366;51.332;6.610;2023-10-08T07:39:17;11.68;;;5.95;;
4704;SDS011;2366;51.332;6.610;2023-10-08T07:41:54;12.13;;;6.10;;
4704;SDS011;2366;51.332;6.610;2023-10-08T07:44:20;19.90;;;7.03;;
4704;SDS011;2366;51.332;6.610;2023-10-08T07:46:50;9.43;;;5.40;;
4704;SDS011;2366;51.332;6.610;2023-10-08T07:49:17;9.00;;;5.47;;
4704;SDS011;2366;51.332;6.610;2023-10-08T07:51:43;11.98;;;5.90;;
4704;SDS011;2366;51.332;6.610;2023-10-08T07:54:21;8.70;;;5.45;;
4704;SDS011;2366;51.332;6.610;2023-10-08T07:56:48;20.63;;;5.93;;
4704;SDS011;2366;51.332;6.610;2023-10-08T07:59:16;11.95;;;6.20;;
4704;SDS011;2366;51.332;6.610;2023-10-08T08:01:42;21.30;;;6.00;;
4704;SDS011;2366;51.332;6.610;2023-10-08T08:04:11;11.13;;;5.97;;
4704;SDS011;2366;51.332;6.610;2023-10-08T08:06:50;23.85;;;6.05;;
4704;SDS011;2366;51.332;6.610;2023-10-08T08:09:17;17.90;;;7.07;;
4704;SDS011;2366;51.332;6.610;2023-10-08T08:11:45;12.18;;;6.30;;
4704;SDS011;2366;51.332;6.610;2023-10-08T08:14:14;9.15;;;6.00;;
4704;SDS011;2366;51.332;6.610;2023-10-08T08:16:49;11.38;;;6.22;;
4704;SDS011;2366;51.332;6.610;2023-10-08T08:19:16;13.65;;;6.80;;
4704;SDS011;2366;51.332;6.610;2023-10-08T08:21:42;10.87;;;7.03;;
4704;SDS011;2366;51.332;6.610;2023-10-08T08:24:10;20.90;;;7.40;;
4704;SDS011;2366;51.332;6.610;2023-10-08T08:26:37;17.85;;;8.02;;
4704;SDS011;2366;51.332;6.610;2023-10-08T08:29:25;26.27;;;9.47;;
4704;SDS011;2366;51.332;6.610;2023-10-08T08:31:51;15.87;;;7.23;;
4704;SDS011;2366;51.332;6.610;2023-10-08T08:34:18;20.27;;;7.60;;
4704;SDS011;2366;51.332;6.610;2023-10-08T08:36:46;24.50;;;8.50;;
4704;SDS011;2366;51.332;6.610;2023-10-08T08:39:14;16.20;;;9.00;;
4704;SDS011;2366;51.332;6.610;2023-10-08T08:41:54;20.23;;;9.10;;
4704;SDS011;2366;51.332;6.610;2023-10-08T08:44:23;18.30;;;9.90;;
4704;SDS011;2366;51.332;6.610;2023-10-08T08:46:54;23.07;;;10.90;;
4704;SDS011;2366;51.332;6.610;2023-10-08T08:49:23;20.73;;;10.30;;
4704;SDS011;2366;51.332;6.610;2023-10-08T08:51:49;31.23;;;11.10;;
4704;SDS011;2366;51.332;6.610;2023-10-08T08:54:18;22.23;;;10.73;;
4704;SDS011;2366;51.332;6.610;2023-10-08T08:56:45;18.53;;;9.80;;
4704;SDS011;2366;51.332;6.610;2023-10-08T08:59:11;32.10;;;11.90;;
4704;SDS011;2366;51.332;6.610;2023-10-08T09:01:39;22.57;;;9.93;;
4704;SDS011;2366;51.332;6.610;2023-10-08T09:04:06;23.03;;;10.47;;
4704;SDS011;2366;51.332;6.610;2023-10-08T09:06:35;23.40;;;11.57;;
4704;SDS011;2366;51.332;6.610;2023-10-08T09:09:05;26.67;;;9.87;;
4704;SDS011;2366;51.332;6.610;2023-10-08T09:11:51;25.20;;;10.80;;
4704;SDS011;2366;51.332;6.610;2023-10-08T09:14:24;34.73;;;12.13;;
4704;SDS011;2366;51.332;6.610;2023-10-08T09:16:50;26.63;;;12.70;;
4704;SDS011;2366;51.332;6.610;2023-10-08T09:19:19;29.03;;;12.63;;
4704;SDS011;2366;51.332;6.610;2023-10-08T09:21:59;25.17;;;12.77;;
4704;SDS011;2366;51.332;6.610;2023-10-08T09:24:32;30.77;;;13.17;;
4704;SDS011;2366;51.332;6.610;2023-10-08T09:27:02;26.83;;;11.60;;
4704;SDS011;2366;51.332;6.610;2023-10-08T09:29:37;26.50;;;12.97;;
4704;SDS011;2366;51.332;6.610;2023-10-08T09:32:07;25.77;;;12.27;;
4704;SDS011;2366;51.332;6.610;2023-10-08T09:34:34;37.57;;;13.73;;
4704;SDS011;2366;51.332;6.610;2023-10-08T09:37:00;20.63;;;11.70;;
4704;SDS011;2366;51.332;6.610;2023-10-08T09:39:29;24.10;;;12.17;;
4704;SDS011;2366;51.332;6.610;2023-10-08T09:41:59;28.43;;;12.40;;
4704;SDS011;2366;51.332;6.610;2023-10-08T09:44:28;30.37;;;14.50;;
4704;SDS011;2366;51.332;6.610;2023-10-08T09:47:05;31.87;;;14.03;;
4704;SDS011;2366;51.332;6.610;2023-10-08T09:49:32;29.93;;;14.43;;
4704;SDS011;2366;51.332;6.610;2023-10-08T09:52:04;26.13;;;13.17;;
4704;SDS011;2366;51.332;6.610;2023-10-08T09:54:51;28.13;;;16.43;;
4704;SDS011;2366;51.332;6.610;2023-10-08T09:57:21;29.57;;;14.30;;
4704;SDS011;2366;51.332;6.610;2023-10-08T09:59:49;25.63;;;14.80;;
4704;SDS011;2366;51.332;6.610;2023-10-08T10:02:15;25.93;;;13.60;;
4704;SDS011;2366;51.332;6.610;2023-10-08T10:04:42;22.50;;;12.30;;
4704;SDS011;2366;51.332;6.610;2023-10-08T10:07:09;29.77;;;13.17;;
4704;SDS011;2366;51.332;6.610;2023-10-08T10:09:42;27.93;;;16.90;;
4704;SDS011;2366;51.332;6.610;2023-10-08T10:12:10;34.93;;;17.90;;
4704;SDS011;2366;51.332;6.610;2023-10-08T10:14:46;30.00;;;17.10;;
4704;SDS011;2366;51.332;6.610;2023-10-08T10:17:13;29.53;;;18.80;;
4704;SDS011;2366;51.332;6.610;2023-10-08T10:19:49;44.80;;;22.03;;
4704;SDS011;2366;51.332;6.610;2023-10-08T10:22:26;50.30;;;24.20;;
4704;SDS011;2366;51.332;6.610;2023-10-08T10:24:53;51.30;;;27.80;;
4704;SDS011;2366;51.332;6.610;2023-10-08T10:27:19;50.97;;;27.33;;
4704;SDS011;2366;51.332;6.610;2023-10-08T10:29:45;48.50;;;26.93;;
4704;SDS011;2366;51.332;6.610;2023-10-08T10:32:12;39.33;;;23.77;;
4704;SDS011;2366;51.332;6.610;2023-10-08T10:34:42;34.17;;;21.67;;
4704;SDS011;2366;51.332;6.610;2023-10-08T10:37:09;39.50;;;22.30;;
4704;SDS011;2366;51.332;6.610;2023-10-08T10:39:53;59.20;;;24.77;;
4704;SDS011;2366;51.332;6.610;2023-10-08T10:42:20;29.57;;;17.70;;
4704;SDS011;2366;51.332;6.610;2023-10-08T10:44:47;33.20;;;16.03;;
4704;SDS011;2366;51.332;6.610;2023-10-08T10:47:18;27.20;;;16.43;;
4704;SDS011;2366;51.332;6.610;2023-10-08T10:49:50;29.80;;;16.23;;
4704;SDS011;2366;51.332;6.610;2023-10-08T10:52:17;18.43;;;13.03;;
4704;SDS011;2366;51.332;6.610;2023-10-08T10:55:06;31.07;;;17.40;;
4704;SDS011;2366;51.332;6.610;2023-10-08T10:57:46;31.70;;;16.40;;
4704;SDS011;2366;51.332;6.610;2023-10-08T11:00:28;28.53;;;15.50;;
4704;SDS011;2366;51.332;6.610;2023-10-08T11:02:57;26.00;;;14.40;;
4704;SDS011;2366;51.332;6.610;2023-10-08T11:05:36;20.60;;;14.43;;
4704;SDS011;2366;51.332;6.610;2023-10-08T11:08:07;25.60;;;14.93;;
4704;SDS011;2366;51.332;6.610;2023-10-08T11:10:34;21.73;;;14.53;;
4704;SDS011;2366;51.332;6.610;2023-10-08T11:13:07;28.97;;;16.27;;
4704;SDS011;2366;51.332;6.610;2023-10-08T11:15:42;25.27;;;13.43;;
4704;SDS011;2366;51.332;6.610;2023-10-08T11:18:14;32.17;;;13.17;;
4704;SDS011;2366;51.332;6.610;2023-10-08T11:20:41;19.83;;;13.40;;
4704;SDS011;2366;51.332;6.610;2023-10-08T11:26:01;30.33;;;12.60;;
4704;SDS011;2366;51.332;6.610;2023-10-08T11:28:29;29.17;;;13.40;;
4704;SDS011;2366;51.332;6.610;2023-10-08T11:31:07;35.50;;;13.87;;
4704;SDS011;2366;51.332;6.610;2023-10-08T11:33:38;24.27;;;16.83;;
4704;SDS011;2366;51.332;6.610;2023-10-08T11:36:05;25.70;;;16.93;;
4704;SDS011;2366;51.332;6.610;2023-10-08T11:38:41;30.73;;;18.53;;
4704;SDS011;2366;51.332;6.610;2023-10-08T11:41:14;39.33;;;20.30;;
4704;SDS011;2366;51.332;6.610;2023-10-08T11:43:47;55.87;;;23.27;;
4704;SDS011;2366;51.332;6.610;2023-10-08T11:46:21;38.43;;;24.17;;
4704;SDS011;2366;51.332;6.610;2023-10-08T11:48:53;53.83;;;24.70;;
4704;SDS011;2366;51.332;6.610;2023-10-08T11:51:22;46.67;;;23.97;;
4704;SDS011;2366;51.332;6.610;2023-10-08T11:53:49;49.10;;;25.43;;
4704;SDS011;2366;51.332;6.610;2023-10-08T11:56:15;35.33;;;22.00;;
4704;SDS011;2366;51.332;6.610;2023-10-08T11:58:40;47.20;;;23.33;;
4704;SDS011;2366;51.332;6.610;2023-10-08T12:01:09;39.10;;;21.53;;
4704;SDS011;2366;51.332;6.610;2023-10-08T12:03:40;38.20;;;21.40;;
4704;SDS011;2366;51.332;6.610;2023-10-08T12:06:15;40.00;;;21.10;;
4704;SDS011;2366;51.332;6.610;2023-10-08T12:08:43;35.60;;;18.20;;
4704;SDS011;2366;51.332;6.610;2023-10-08T12:11:15;27.77;;;15.27;;
4704;SDS011;2366;51.332;6.610;2023-10-08T12:13:41;33.20;;;18.70;;
4704;SDS011;2366;51.332;6.610;2023-10-08T12:16:13;23.63;;;16.27;;
4704;SDS011;2366;51.332;6.610;2023-10-08T12:18:46;33.30;;;17.40;;
4704;SDS011;2366;51.332;6.610;2023-10-08T12:21:14;27.43;;;17.10;;
4704;SDS011;2366;51.332;6.610;2023-10-08T12:23:41;31.13;;;18.20;;
4704;SDS011;2366;51.332;6.610;2023-10-08T12:26:11;40.33;;;21.50;;
4704;SDS011;2366;51.332;6.610;2023-10-08T12:28:41;29.23;;;18.87;;
4704;SDS011;2366;51.332;6.610;2023-10-08T12:31:09;37.10;;;17.00;;
4704;SDS011;2366;51.332;6.610;2023-10-08T12:33:36;37.10;;;16.30;;
4704;SDS011;2366;51.332;6.610;2023-10-08T12:36:02;35.40;;;17.70;;
4704;SDS011;2366;51.332;6.610;2023-10-08T12:38:35;26.93;;;17.00;;
4704;SDS011;2366;51.332;6.610;2023-10-08T12:41:01;24.50;;;16.63;;
4704;SDS011;2366;51.332;6.610;2023-10-08T12:43:36;25.23;;;16.77;;
4704;SDS011;2366;51.332;6.610;2023-10-08T12:46:04;32.33;;;16.80;;
4704;SDS011;2366;51.332;6.610;2023-10-08T12:48:36;35.27;;;17.23;;
4704;SDS011;2366;51.332;6.610;2023-10-08T12:51:02;38.37;;;19.37;;
4704;SDS011;2366;51.332;6.610;2023-10-08T12:53:31;36.33;;;18.80;;
4704;SDS011;2366;51.332;6.610;2023-10-08T12:56:05;58.00;;;19.90;;
4704;SDS011;2366;51.332;6.610;2023-10-08T12:58:35;25.70;;;14.93;;
4704;SDS011;2366;51.332;6.610;2023-10-08T13:01:07;27.70;;;16.33;;
4704;SDS011;2366;51.332;6.610;2023-10-08T13:03:34;27.73;;;16.37;;
4704;SDS011;2366;51.332;6.610;2023-10-08T13:06:06;22.33;;;14.40;;
4704;SDS011;2366;51.332;6.610;2023-10-08T13:08:36;22.53;;;14.40;;
4704;SDS011;2366;51.332;6.610;2023-10-08T13:11:02;30.33;;;17.10;;
4704;SDS011;2366;51.332;6.610;2023-10-08T13:13:30;28.53;;;17.47;;
4704;SDS011;2366;51.332;6.610;2023-10-08T13:15:57;26.93;;;15.63;;
4704;SDS011;2366;51.332;6.610;2023-10-08T13:18:25;36.40;;;17.17;;
4704;SDS011;2366;51.332;6.610;2023-10-08T13:20:53;27.70;;;17.17;;
4704;SDS011;2366;51.332;6.610;2023-10-08T13:23:19;25.00;;;15.97;;
4704;SDS011;2366;51.332;6.610;2023-10-08T13:25:52;32.90;;;18.13;;
4704;SDS011;2366;51.332;6.610;2023-10-08T13:28:21;26.43;;;14.50;;
4704;SDS011;2366;51.332;6.610;2023-10-08T13:30:47;23.73;;;15.43;;
4704;SDS011;2366;51.332;6.610;2023-10-08T13:33:17;18.20;;;11.70;;
4704;SDS011;2366;51.332;6.610;2023-10-08T13:35:47;20.13;;;12.17;;
4704;SDS011;2366;51.332;6.610;2023-10-08T13:38:16;20.53;;;11.30;;
4704;SDS011;2366;51.332;6.610;2023-10-08T13:40:45;20.27;;;12.20;;
4704;SDS011;2366;51.332;6.610;2023-10-08T13:43:34;20.57;;;11.40;;
4704;SDS011;2366;51.332;6.610;2023-10-08T13:46:06;18.90;;;11.03;;
4704;SDS011;2366;51.332;6.610;2023-10-08T13:48:37;21.40;;;11.30;;
4704;SDS011;2366;51.332;6.610;2023-10-08T13:51:03;23.57;;;11.33;;
4704;SDS011;2366;51.332;6.610;2023-10-08T13:53:30;28.80;;;14.37;;
4704;SDS011;2366;51.332;6.610;2023-10-08T13:55:57;24.87;;;12.47;;
4704;SDS011;2366;51.332;6.610;2023-10-08T13:58:27;22.73;;;13.33;;
4704;SDS011;2366;51.332;6.610;2023-10-08T14:00:58;30.47;;;13.60;;
4704;SDS011;2366;51.332;6.610;2023-10-08T14:03:31;21.40;;;11.80;;
4704;SDS011;2366;51.332;6.610;2023-10-08T14:05:57;21.70;;;11.37;;
4704;SDS011;2366;51.332;6.610;2023-10-08T14:08:27;22.67;;;12.83;;
4704;SDS011;2366;51.332;6.610;2023-10-08T14:10:54;27.73;;;12.30;;
4704;SDS011;2366;51.332;6.610;2023-10-08T14:13:25;18.23;;;13.47;;
4704;SDS011;2366;51.332;6.610;2023-10-08T14:15:52;15.57;;;11.80;;
4704;SDS011;2366;51.332;6.610;2023-10-08T14:18:21;35.40;;;16.90;;
4704;SDS011;2366;51.332;6.610;2023-10-08T14:20:51;28.27;;;18.43;;
4704;SDS011;2366;51.332;6.610;2023-10-08T14:23:19;34.20;;;16.07;;
4704;SDS011;2366;51.332;6.610;2023-10-08T14:25:50;29.90;;;18.23;;
4704;SDS011;2366;51.332;6.610;2023-10-08T14:28:19;24.30;;;15.40;;
4704;SDS011;2366;51.332;6.610;2023-10-08T14:30:48;23.63;;;13.73;;
4704;SDS011;2366;51.332;6.610;2023-10-08T14:33:21;26.40;;;15.00;;
4704;SDS011;2366;51.332;6.610;2023-10-08T14:35:51;23.03;;;16.20;;
4704;SDS011;2366;51.332;6.610;2023-10-08T14:38:43;26.27;;;14.97;;
4704;SDS011;2366;51.332;6.610;2023-10-08T14:41:27;26.97;;;15.30;;
4704;SDS011;2366;51.332;6.610;2023-10-08T14:44:11;23.70;;;13.47;;
4704;SDS011;2366;51.332;6.610;2023-10-08T14:46:39;25.63;;;13.13;;
4704;SDS011;2366;51.332;6.610;2023-10-08T14:49:04;21.40;;;13.83;;
4704;SDS011;2366;51.332;6.610;2023-10-08T14:51:34;25.83;;;14.83;;
4704;SDS011;2366;51.332;6.610;2023-10-08T14:54:00;30.13;;;16.50;;
4704;SDS011;2366;51.332;6.610;2023-10-08T14:56:26;31.33;;;13.70;;
4704;SDS011;2366;51.332;6.610;2023-10-08T14:58:55;26.43;;;13.20;;
4704;SDS011;2366;51.332;6.610;2023-10-08T15:01:20;19.23;;;13.00;;
4704;SDS011;2366;51.332;6.610;2023-10-08T15:03:48;28.70;;;15.13;;
4704;SDS011;2366;51.332;6.610;2023-10-08T15:06:13;24.30;;;14.07;;
4704;SDS011;2366;51.332;6.610;2023-10-08T15:08:39;27.83;;;14.63;;
4704;SDS011;2366;51.332;6.610;2023-10-08T15:11:05;24.37;;;14.43;;
4704;SDS011;2366;51.332;6.610;2023-10-08T15:13:32;16.37;;;12.43;;
4704;SDS011;2366;51.332;6.610;2023-10-08T15:15:58;26.17;;;12.20;;
4704;SDS011;2366;51.332;6.610;2023-10-08T15:18:25;21.43;;;12.80;;
4704;SDS011;2366;51.332;6.610;2023-10-08T15:20:56;26.97;;;14.60;;
4704;SDS011;2366;51.332;6.610;2023-10-08T15:23:22;20.67;;;13.30;;